Time,TemperatureF,DewpointF,PressureIn,WindDirection,WindDirectionDegrees,WindSpeedMPH,WindSpeedGustMPH,Humidity,HourlyPrecipIn,Conditions,Clouds,dailyrainin,SoftwareType,DateUTC
2013-02-14 00:03:00,32.6,28.9,29.81,NNE,23,0.4,1.6,86,0.00,,,0.00,WUHU216HW,2013-02-14 05:03:00,
2013-02-14 00:04:00,32.8,29.0,29.81,NNE,23,1.1,1.6,86,0.00,,,0.00,WUHU216HW,2013-02-14 05:04:00,
2013-02-14 00:09:00,32.8,29.4,29.82,SE,135,1.6,1.6,87,0.00,,,0.00,WUHU216HW,2013-02-14 05:09:00,
2013-02-14 00:14:00,32.9,29.2,29.81,SE,135,1.1,1.6,86,0.00,,,0.00,WUHU216HW,2013-02-14 05:14:00,
2013-02-14 00:19:00,33.1,29.6,29.81,SE,135,1.3,1.6,87,0.00,,,0.00,WUHU216HW,2013-02-14 05:19:00,
2013-02-14 00:24:00,33.1,29.3,29.82,SE,135,0.0,1.3,86,0.00,,,0.00,WUHU216HW,2013-02-14 05:24:00,
2013-02-14 00:29:00,33.1,29.1,29.82,SE,135,0.4,1.3,85,0.00,,,0.00,WUHU216HW,2013-02-14 05:29:00,
2013-02-14 00:34:00,33.1,29.3,29.82,SE,135,0.0,1.1,86,0.00,,,0.00,WUHU216HW,2013-02-14 05:34:00,
2013-02-14 00:39:00,33.1,29.3,29.82,SE,135,1.3,1.8,86,0.00,,,0.00,WUHU216HW,2013-02-14 05:39:00,
2013-02-14 00:44:00,33.3,29.5,29.82,SE,135,1.1,1.8,86,0.00,,,0.00,WUHU216HW,2013-02-14 05:44:00,
2013-02-14 00:49:00,33.3,29.5,29.83,SE,135,0.4,1.8,86,0.00,,,0.00,WUHU216HW,2013-02-14 05:49:00,
2013-02-14 00:54:00,33.3,29.5,29.83,SE,135,1.1,1.8,86,0.00,,,0.00,WUHU216HW,2013-02-14 05:54:00,
2013-02-14 00:59:00,33.3,29.8,29.83,SE,135,0.7,1.8,87,0.00,,,0.00,WUHU216HW,2013-02-14 05:59:00,
2013-02-14 01:04:00,33.1,29.3,29.83,SE,135,0.4,1.6,86,0.00,,,0.00,WUHU216HW,2013-02-14 06:04:00,
2013-02-14 01:09:00,32.9,29.2,29.83,SE,135,0.4,1.6,86,0.00,,,0.00,WUHU216HW,2013-02-14 06:09:00,
2013-02-14 01:14:00,32.9,29.2,29.83,SE,135,1.1,1.3,86,0.00,,,0.00,WUHU216HW,2013-02-14 06:14:00,
2013-02-14 01:19:00,32.9,29.2,29.83,SE,135,0.9,1.3,86,0.00,,,0.00,WUHU216HW,2013-02-14 06:19:00,
2013-02-14 01:24:00,32.8,29.4,29.84,SE,135,1.3,2.5,87,0.00,,,0.00,WUHU216HW,2013-02-14 06:24:00,
2013-02-14 01:29:00,32.6,29.2,29.83,SE,135,0.4,2.5,87,0.00,,,0.00,WUHU216HW,2013-02-14 06:29:00,
2013-02-14 01:34:00,32.6,29.4,29.83,SE,135,1.8,1.8,88,0.00,,,0.00,WUHU216HW,2013-02-14 06:34:00,
2013-02-14 01:39:00,32.8,29.4,29.84,SE,135,0.9,2.0,87,0.00,,,0.00,WUHU216HW,2013-02-14 06:39:00,
2013-02-14 01:44:00,32.8,29.4,29.83,SE,135,0.2,2.0,87,0.00,,,0.00,WUHU216HW,2013-02-14 06:44:00,
2013-02-14 01:49:00,32.8,29.4,29.84,SE,135,1.1,1.1,87,0.00,,,0.00,WUHU216HW,2013-02-14 06:49:00,
2013-02-14 01:54:00,32.6,29.2,29.84,SE,135,0.9,1.3,87,0.00,,,0.00,WUHU216HW,2013-02-14 06:54:00,
2013-02-14 01:59:00,32.4,29.3,29.84,SE,135,1.3,1.6,88,0.00,,,0.00,WUHU216HW,2013-02-14 06:59:00,
2013-02-14 02:04:00,32.4,29.3,29.84,SE,135,1.6,1.8,88,0.00,,,0.00,WUHU216HW,2013-02-14 07:04:00,
2013-02-14 02:09:00,32.0,29.0,29.85,SE,135,1.1,1.8,88,0.00,,,0.00,WUHU216HW,2013-02-14 07:09:00,
2013-02-14 02:14:00,32.0,29.5,29.85,SE,135,0.4,1.8,90,0.00,,,0.00,WUHU216HW,2013-02-14 07:14:00,
2013-02-14 02:19:00,31.9,29.3,29.86,SE,135,0.9,1.1,90,0.00,,,0.00,WUHU216HW,2013-02-14 07:19:00,
2013-02-14 02:24:00,32.0,29.5,29.86,SE,135,1.1,1.8,90,0.00,,,0.00,WUHU216HW,2013-02-14 07:24:00,
2013-02-14 02:29:00,32.0,29.8,29.86,SE,135,1.1,1.8,91,0.00,,,0.00,WUHU216HW,2013-02-14 07:29:00,
2013-02-14 02:34:00,32.2,29.1,29.86,SE,135,0.4,1.3,88,0.00,,,0.00,WUHU216HW,2013-02-14 07:34:00,
2013-02-14 02:39:00,32.2,29.1,29.86,SE,135,0.4,1.6,88,0.00,,,0.00,WUHU216HW,2013-02-14 07:39:00,
2013-02-14 02:44:00,32.0,29.3,29.87,SE,135,0.2,1.6,89,0.00,,,0.00,WUHU216HW,2013-02-14 07:44:00,
2013-02-14 02:49:00,31.7,28.6,29.87,SE,135,0.0,0.4,88,0.00,,,0.00,WUHU216HW,2013-02-14 07:49:00,
2013-02-14 02:54:00,31.3,28.3,29.87,SE,135,0.9,0.9,88,0.00,,,0.00,WUHU216HW,2013-02-14 07:54:00,
2013-02-14 02:59:00,31.0,27.9,29.87,SE,135,0.0,0.9,88,0.00,,,0.00,WUHU216HW,2013-02-14 07:59:00,
2013-02-14 03:04:00,30.6,27.8,29.88,SE,135,0.0,0.9,89,0.00,,,0.00,WUHU216HW,2013-02-14 08:04:00,
2013-02-14 03:09:00,30.4,27.6,29.88,SE,135,0.9,0.9,89,0.00,,,0.00,WUHU216HW,2013-02-14 08:09:00,
2013-02-14 03:14:00,30.4,27.6,29.88,SE,135,0.4,0.9,89,0.00,,,0.00,WUHU216HW,2013-02-14 08:14:00,
2013-02-14 03:19:00,30.4,27.6,29.88,SE,135,0.4,0.9,89,0.00,,,0.00,WUHU216HW,2013-02-14 08:19:00,
2013-02-14 03:45:00,30.2,27.5,29.89,SE,135,1.1,1.6,89,0.00,,,0.00,WUHU216HW,2013-02-14 08:45:00,
2013-02-14 03:50:00,30.2,27.5,29.89,SE,135,0.0,1.6,89,0.00,,,0.00,WUHU216HW,2013-02-14 08:50:00,
2013-02-14 03:55:00,30.1,27.3,29.89,SE,135,0.0,1.1,89,0.00,,,0.00,WUHU216HW,2013-02-14 08:55:00,
2013-02-14 04:00:00,30.1,26.6,29.89,SE,135,0.9,0.9,87,0.00,,,0.00,WUHU216HW,2013-02-14 09:00:00,
2013-02-14 04:05:00,29.9,26.5,29.90,SE,135,0.9,0.9,87,0.00,,,0.00,WUHU216HW,2013-02-14 09:05:00,
2013-02-14 04:10:00,29.7,26.3,29.90,SE,135,1.1,1.3,87,0.00,,,0.00,WUHU216HW,2013-02-14 09:10:00,
2013-02-14 04:15:00,29.7,26.3,29.90,SE,135,0.2,1.3,87,0.00,,,0.00,WUHU216HW,2013-02-14 09:15:00,
2013-02-14 04:20:00,29.3,26.6,29.90,SE,135,0.2,0.7,89,0.00,,,0.00,WUHU216HW,2013-02-14 09:20:00,
2013-02-14 04:25:00,29.0,26.2,29.90,SE,135,0.4,1.3,89,0.00,,,0.00,WUHU216HW,2013-02-14 09:25:00,
2013-02-14 04:30:00,28.8,26.0,29.91,SE,135,0.0,1.3,89,0.00,,,0.00,WUHU216HW,2013-02-14 09:30:00,
2013-02-14 04:35:00,28.8,26.3,29.91,SE,135,0.4,1.3,90,0.00,,,0.00,WUHU216HW,2013-02-14 09:35:00,
2013-02-14 04:40:00,29.3,26.3,29.92,SE,135,0.9,1.3,88,0.00,,,0.00,WUHU216HW,2013-02-14 09:40:00,
2013-02-14 04:45:00,29.2,25.7,29.92,SE,135,0.4,1.6,87,0.00,,,0.00,WUHU216HW,2013-02-14 09:45:00,
2013-02-14 04:50:00,29.2,25.7,29.92,SE,135,0.4,1.6,87,0.00,,,0.00,WUHU216HW,2013-02-14 09:50:00,
2013-02-14 04:55:00,29.2,26.1,29.92,SE,135,0.0,1.1,88,0.00,,,0.00,WUHU216HW,2013-02-14 09:55:00,
2013-02-14 05:00:00,29.0,26.5,29.92,SE,135,1.8,3.4,90,0.00,,,0.00,WUHU216HW,2013-02-14 10:00:00,
2013-02-14 05:05:00,28.8,26.6,29.92,SE,135,1.3,3.4,91,0.00,,,0.00,WUHU216HW,2013-02-14 10:05:00,
2013-02-14 05:10:00,29.0,25.9,29.93,SE,135,0.2,1.8,88,0.00,,,0.00,WUHU216HW,2013-02-14 10:10:00,
2013-02-14 05:15:00,29.0,25.9,29.93,SE,135,0.0,1.1,88,0.00,,,0.00,WUHU216HW,2013-02-14 10:15:00,
2013-02-14 05:20:00,28.8,25.8,29.93,SE,135,0.7,1.3,88,0.00,,,0.00,WUHU216HW,2013-02-14 10:20:00,
2013-02-14 05:25:00,28.8,25.8,29.93,SE,135,0.4,1.3,88,0.00,,,0.00,WUHU216HW,2013-02-14 10:25:00,
2013-02-14 05:30:00,28.4,25.9,29.93,SE,135,1.1,1.8,90,0.00,,,0.00,WUHU216HW,2013-02-14 10:30:00,
2013-02-14 05:35:00,28.3,25.7,29.93,SE,135,0.4,2.2,90,0.00,,,0.00,WUHU216HW,2013-02-14 10:35:00,
2013-02-14 05:40:00,27.9,25.4,29.93,SE,135,0.0,2.2,90,0.00,,,0.00,WUHU216HW,2013-02-14 10:40:00,
2013-02-14 05:45:00,27.7,25.2,29.93,SE,135,0.2,0.4,90,0.00,,,0.00,WUHU216HW,2013-02-14 10:45:00,
2013-02-14 05:50:00,27.7,24.7,29.94,SE,135,0.7,0.7,88,0.00,,,0.00,WUHU216HW,2013-02-14 10:50:00,
2013-02-14 05:55:00,27.9,24.9,29.93,SE,135,0.9,0.9,88,0.00,,,0.00,WUHU216HW,2013-02-14 10:55:00,
2013-02-14 06:00:00,27.9,24.9,29.93,SE,135,0.7,1.3,88,0.00,,,0.00,WUHU216HW,2013-02-14 11:00:00,
2013-02-14 06:05:00,27.9,24.9,29.94,SE,135,0.4,1.3,88,0.00,,,0.00,WUHU216HW,2013-02-14 11:05:00,
2013-02-14 06:10:00,27.7,24.7,29.94,SE,135,0.2,0.7,88,0.00,,,0.00,WUHU216HW,2013-02-14 11:10:00,
2013-02-14 06:15:00,27.4,24.6,29.94,SE,135,0.0,0.4,89,0.00,,,0.00,WUHU216HW,2013-02-14 11:15:00,
2013-02-14 06:20:00,27.4,23.9,29.94,SE,135,0.7,0.9,87,0.00,,,0.00,WUHU216HW,2013-02-14 11:20:00,
2013-02-14 06:25:00,27.5,24.1,29.94,SE,135,0.4,0.9,87,0.00,,,0.00,WUHU216HW,2013-02-14 11:25:00,
2013-02-14 06:30:00,27.4,24.3,29.94,SE,135,0.9,0.9,88,0.00,,,0.00,WUHU216HW,2013-02-14 11:30:00,
2013-02-14 06:35:00,27.0,24.2,29.94,SE,135,0.4,1.1,89,0.00,,,0.00,WUHU216HW,2013-02-14 11:35:00,
2013-02-14 06:40:00,26.5,23.7,29.94,SE,135,0.0,1.1,89,0.00,,,0.00,WUHU216HW,2013-02-14 11:40:00,
2013-02-14 06:45:00,26.3,23.5,29.95,SE,135,0.0,0.4,89,0.00,,,0.00,WUHU216HW,2013-02-14 11:45:00,
2013-02-14 06:50:00,26.5,23.7,29.95,SE,135,0.0,0.4,89,0.00,,,0.00,WUHU216HW,2013-02-14 11:50:00,
2013-02-14 06:55:00,26.8,24.0,29.95,SE,135,0.0,0.4,89,0.00,,,0.00,WUHU216HW,2013-02-14 11:55:00,
2013-02-14 07:00:00,26.6,24.1,29.96,SE,135,0.9,2.5,90,0.00,,,0.00,WUHU216HW,2013-02-14 12:00:00,
2013-02-14 07:05:00,26.5,23.4,29.96,SE,135,0.0,2.5,88,0.00,,,0.00,WUHU216HW,2013-02-14 12:05:00,
2013-02-14 07:10:00,26.5,23.0,29.97,SE,135,0.4,0.7,87,0.00,,,0.00,WUHU216HW,2013-02-14 12:10:00,
2013-02-14 07:15:00,26.3,23.2,29.97,SE,135,0.0,1.1,88,0.00,,,0.00,WUHU216HW,2013-02-14 12:15:00,
2013-02-14 07:20:00,26.3,23.2,29.97,SE,135,0.0,1.1,88,0.00,,,0.00,WUHU216HW,2013-02-14 12:20:00,
2013-02-14 07:25:00,26.3,23.5,29.97,SE,135,0.0,0.4,89,0.00,,,0.00,WUHU216HW,2013-02-14 12:25:00,
2013-02-14 07:30:00,26.5,23.7,29.97,SE,135,0.0,0.4,89,0.00,,,0.00,WUHU216HW,2013-02-14 12:30:00,
2013-02-14 07:35:00,27.0,24.2,29.97,SE,135,0.0,0.0,89,0.00,,,0.00,WUHU216HW,2013-02-14 12:35:00,
2013-02-14 07:40:00,27.2,24.4,29.98,SE,135,0.7,0.7,89,0.00,,,0.00,WUHU216HW,2013-02-14 12:40:00,
2013-02-14 07:45:00,27.4,24.6,29.98,SE,135,0.0,0.7,89,0.00,,,0.00,WUHU216HW,2013-02-14 12:45:00,
2013-02-14 07:50:00,27.5,24.8,29.98,SE,135,0.0,0.7,89,0.00,,,0.00,WUHU216HW,2013-02-14 12:50:00,
2013-02-14 07:55:00,27.7,24.9,29.98,SE,135,0.2,0.7,89,0.00,,,0.00,WUHU216HW,2013-02-14 12:55:00,
2013-02-14 08:00:00,27.9,24.9,29.98,SE,135,0.0,0.7,88,0.00,,,0.00,WUHU216HW,2013-02-14 13:00:00,
2013-02-14 08:05:00,28.3,25.2,29.99,SW,225,0.0,0.2,88,0.00,,,0.00,WUHU216HW,2013-02-14 13:05:00,
2013-02-14 08:10:00,28.4,25.4,29.99,SW,225,0.0,0.0,88,0.00,,,0.00,WUHU216HW,2013-02-14 13:10:00,
2013-02-14 08:15:00,29.0,25.6,29.99,SW,225,0.4,0.4,87,0.00,,,0.00,WUHU216HW,2013-02-14 13:15:00,
2013-02-14 08:20:00,29.2,25.5,29.99,SW,225,0.7,0.9,86,0.00,,,0.00,WUHU216HW,2013-02-14 13:20:00,
2013-02-14 08:25:00,29.2,25.5,30.00,WSW,248,1.1,1.1,86,0.00,,,0.00,WUHU216HW,2013-02-14 13:25:00,
2013-02-14 08:30:00,29.2,26.1,30.00,South,180,0.9,1.1,88,0.00,,,0.00,WUHU216HW,2013-02-14 13:30:00,
2013-02-14 08:35:00,29.7,26.3,30.00,SSE,158,0.7,1.3,87,0.00,,,0.00,WUHU216HW,2013-02-14 13:35:00,
2013-02-14 08:40:00,29.7,26.3,30.00,SSE,158,0.2,1.3,87,0.00,,,0.00,WUHU216HW,2013-02-14 13:40:00,
2013-02-14 08:45:00,29.9,26.2,30.00,SSE,158,0.4,1.1,86,0.00,,,0.00,WUHU216HW,2013-02-14 13:45:00,
2013-02-14 08:50:00,30.1,26.6,30.00,SSE,158,1.3,1.3,87,0.00,,,0.00,WUHU216HW,2013-02-14 13:50:00,
2013-02-14 08:55:00,30.4,27.4,30.00,SSE,158,0.7,1.3,88,0.00,,,0.00,WUHU216HW,2013-02-14 13:55:00,
2013-02-14 09:00:00,31.0,27.9,30.00,SW,225,0.7,1.3,88,0.00,,,0.00,WUHU216HW,2013-02-14 14:00:00,
2013-02-14 09:05:00,31.3,27.9,30.01,WSW,248,1.1,1.1,87,0.00,,,0.00,WUHU216HW,2013-02-14 14:05:00,
2013-02-14 09:10:00,31.9,28.8,30.01,SW,225,0.7,1.3,88,0.00,,,0.00,WUHU216HW,2013-02-14 14:10:00,
2013-02-14 09:15:00,32.0,28.6,30.01,WSW,248,1.3,1.8,87,0.00,,,0.00,WUHU216HW,2013-02-14 14:15:00,
2013-02-14 09:20:00,32.6,29.2,30.01,WSW,248,0.4,1.8,87,0.00,,,0.00,WUHU216HW,2013-02-14 14:20:00,
2013-02-14 09:25:00,32.9,29.4,30.01,WSW,248,1.1,1.3,87,0.00,,,0.00,WUHU216HW,2013-02-14 14:25:00,
2013-02-14 09:30:00,33.1,29.6,30.01,SW,225,0.7,1.3,87,0.00,,,0.00,WUHU216HW,2013-02-14 14:30:00,
2013-02-14 09:35:00,33.5,30.0,30.01,SW,225,0.9,1.1,87,0.00,,,0.00,WUHU216HW,2013-02-14 14:35:00,
2013-02-14 09:40:00,33.8,30.0,30.01,WSW,248,0.7,1.6,86,0.00,,,0.00,WUHU216HW,2013-02-14 14:40:00,
2013-02-14 09:45:00,34.2,30.3,30.01,SW,225,1.8,1.8,86,0.00,,,0.00,WUHU216HW,2013-02-14 14:45:00,
2013-02-14 09:50:00,34.9,31.3,30.03,WSW,248,0.7,1.8,87,0.00,,,0.00,WUHU216HW,2013-02-14 14:50:00,
2013-02-14 09:55:00,35.3,31.1,30.02,SW,225,0.9,1.8,85,0.00,,,0.00,WUHU216HW,2013-02-14 14:55:00,
2013-02-14 10:00:00,35.6,31.2,30.02,SW,225,0.9,1.6,84,0.00,,,0.00,WUHU216HW,2013-02-14 15:00:00,
2013-02-14 10:05:00,36.2,31.8,30.03,SW,225,1.1,3.1,84,0.00,,,0.00,WUHU216HW,2013-02-14 15:05:00,
2013-02-14 10:10:00,36.4,31.7,30.03,SSE,158,1.8,3.1,83,0.00,,,0.00,WUHU216HW,2013-02-14 15:10:00,
2013-02-14 10:16:00,36.5,31.2,30.03,WSW,248,1.1,2.5,81,0.00,,,0.00,WUHU216HW,2013-02-14 15:16:00,
2013-02-14 10:21:00,37.1,31.8,30.02,SW,225,1.1,2.5,81,0.00,,,0.00,WUHU216HW,2013-02-14 15:21:00,
2013-02-14 10:26:00,37.3,31.7,30.02,East,90,1.8,2.5,80,0.00,,,0.00,WUHU216HW,2013-02-14 15:26:00,
2013-02-14 10:31:00,37.4,31.2,30.01,WSW,248,0.4,2.5,78,0.00,,,0.00,WUHU216HW,2013-02-14 15:31:00,
2013-02-14 10:36:00,38.0,31.8,30.01,SW,225,2.9,2.9,78,0.00,,,0.00,WUHU216HW,2013-02-14 15:36:00,
2013-02-14 10:41:00,38.0,31.4,30.01,WSW,248,1.8,2.9,77,0.00,,,0.00,WUHU216HW,2013-02-14 15:41:00,
2013-02-14 10:46:00,37.8,30.2,30.01,WSW,248,1.8,2.9,74,0.00,,,0.00,WUHU216HW,2013-02-14 15:46:00,
2013-02-14 10:51:00,38.0,30.4,30.01,WSW,248,1.6,3.4,74,0.00,,,0.00,WUHU216HW,2013-02-14 15:51:00,
2013-02-14 10:56:00,38.5,30.6,30.01,WNW,293,1.8,3.4,73,0.00,,,0.00,WUHU216HW,2013-02-14 15:56:00,
2013-02-14 11:01:00,38.7,30.4,30.01,SE,135,1.1,3.4,72,0.00,,,0.00,WUHU216HW,2013-02-14 16:01:00,
2013-02-14 11:06:00,38.9,30.2,30.02,SW,225,1.6,3.4,71,0.00,,,0.00,WUHU216HW,2013-02-14 16:06:00,
2013-02-14 11:11:00,39.2,30.6,30.02,SW,225,1.1,3.4,71,0.00,,,0.00,WUHU216HW,2013-02-14 16:11:00,
2013-02-14 11:16:00,39.4,30.4,30.02,SW,225,1.8,3.1,70,0.00,,,0.00,WUHU216HW,2013-02-14 16:16:00,
2013-02-14 11:21:00,40.0,29.8,30.02,East,90,1.1,3.1,67,0.00,,,0.00,WUHU216HW,2013-02-14 16:21:00,
2013-02-14 11:26:00,40.1,30.4,30.02,WNW,293,1.3,2.5,68,0.00,,,0.00,WUHU216HW,2013-02-14 16:26:00,
2013-02-14 11:31:00,40.1,29.6,30.01,NNW,338,1.8,2.5,66,0.00,,,0.00,WUHU216HW,2013-02-14 16:31:00,
2013-02-14 11:36:00,40.1,30.0,30.02,West,270,1.8,2.5,67,0.00,,,0.00,WUHU216HW,2013-02-14 16:36:00,
2013-02-14 11:41:00,40.3,30.2,30.02,WSW,248,2.9,3.4,67,0.00,,,0.00,WUHU216HW,2013-02-14 16:41:00,
2013-02-14 11:46:00,40.5,30.0,30.02,NNW,338,0.4,5.1,66,0.00,,,0.00,WUHU216HW,2013-02-14 16:46:00,
2013-02-14 11:51:00,40.7,30.5,30.02,SSW,203,1.1,5.1,67,0.00,,,0.00,WUHU216HW,2013-02-14 16:51:00,
2013-02-14 11:56:00,40.7,29.8,30.03,South,180,2.5,3.1,65,0.00,,,0.00,WUHU216HW,2013-02-14 16:56:00,
2013-02-14 12:01:00,40.7,29.4,30.02,SSW,203,1.8,3.4,64,0.00,,,0.00,WUHU216HW,2013-02-14 17:01:00,
2013-02-14 12:06:00,40.9,29.6,30.02,WSW,248,2.9,3.4,64,0.00,,,0.00,WUHU216HW,2013-02-14 17:06:00,
2013-02-14 12:11:00,41.4,30.2,30.02,WSW,248,2.9,3.4,64,0.00,,,0.00,WUHU216HW,2013-02-14 17:11:00,
2013-02-14 12:16:00,41.8,30.9,30.01,WSW,248,1.3,3.8,65,0.00,,,0.00,WUHU216HW,2013-02-14 17:16:00,
2013-02-14 12:21:00,41.9,30.3,30.01,West,270,1.8,4.0,63,0.00,,,0.00,WUHU216HW,2013-02-14 17:21:00,
2013-02-14 12:26:00,42.1,30.4,30.00,WSW,248,1.8,4.0,63,0.00,,,0.00,WUHU216HW,2013-02-14 17:26:00,
2013-02-14 12:31:00,42.1,30.0,30.01,West,270,2.0,5.1,62,0.00,,,0.00,WUHU216HW,2013-02-14 17:31:00,
2013-02-14 12:36:00,42.1,29.6,30.01,WNW,293,1.8,5.1,61,0.00,,,0.00,WUHU216HW,2013-02-14 17:36:00,
2013-02-14 12:41:00,42.1,30.0,30.00,WSW,248,2.9,5.1,62,0.00,,,0.00,WUHU216HW,2013-02-14 17:41:00,
2013-02-14 12:46:00,42.3,29.4,29.99,WSW,248,1.1,4.5,60,0.00,,,0.00,WUHU216HW,2013-02-14 17:46:00,
2013-02-14 12:51:00,42.8,29.9,29.99,WSW,248,1.1,4.9,60,0.00,,,0.00,WUHU216HW,2013-02-14 17:51:00,
2013-02-14 12:56:00,43.0,29.6,29.99,NW,315,2.0,4.9,59,0.00,,,0.00,WUHU216HW,2013-02-14 17:56:00,
2013-02-14 13:01:00,43.0,30.1,29.99,NNW,338,1.8,3.6,60,0.00,,,0.00,WUHU216HW,2013-02-14 18:01:00,
2013-02-14 13:06:00,43.2,29.3,29.98,WNW,293,1.1,4.3,58,0.00,,,0.00,WUHU216HW,2013-02-14 18:06:00,
2013-02-14 13:11:00,43.6,30.6,29.99,NW,315,2.2,4.3,60,0.00,,,0.00,WUHU216HW,2013-02-14 18:11:00,
2013-02-14 13:16:00,43.7,30.3,29.98,West,270,2.9,2.9,59,0.00,,,0.00,WUHU216HW,2013-02-14 18:16:00,
2013-02-14 13:21:00,43.7,30.3,29.98,WNW,293,4.0,4.0,59,0.00,,,0.00,WUHU216HW,2013-02-14 18:21:00,
2013-02-14 13:26:00,43.7,29.9,29.97,West,270,2.0,4.0,58,0.00,,,0.00,WUHU216HW,2013-02-14 18:26:00,
2013-02-14 13:31:00,44.1,30.7,29.97,WNW,293,1.6,4.0,59,0.00,,,0.00,WUHU216HW,2013-02-14 18:31:00,
2013-02-14 13:36:00,44.3,29.5,29.97,West,270,3.8,4.0,56,0.00,,,0.00,WUHU216HW,2013-02-14 18:36:00,
2013-02-14 13:41:00,44.5,29.7,29.97,NW,315,2.0,4.0,56,0.00,,,0.00,WUHU216HW,2013-02-14 18:41:00,
2013-02-14 13:46:00,44.6,30.3,29.96,SW,225,2.0,4.7,57,0.00,,,0.00,WUHU216HW,2013-02-14 18:46:00,
2013-02-14 13:51:00,44.5,29.3,29.97,SSW,203,2.0,4.7,55,0.00,,,0.00,WUHU216HW,2013-02-14 18:51:00,
2013-02-14 13:56:00,45.0,30.7,29.97,WSW,248,1.8,3.8,57,0.00,,,0.00,WUHU216HW,2013-02-14 18:56:00,
2013-02-14 14:01:00,45.5,29.8,29.97,WSW,248,1.1,4.7,54,0.00,,,0.00,WUHU216HW,2013-02-14 19:01:00,
2013-02-14 14:06:00,45.9,30.6,29.97,WNW,293,2.5,4.7,55,0.00,,,0.00,WUHU216HW,2013-02-14 19:06:00,
2013-02-14 14:11:00,45.9,30.6,29.97,West,270,2.0,4.5,55,0.00,,,0.00,WUHU216HW,2013-02-14 19:11:00,
2013-02-14 14:16:00,45.7,30.4,29.96,SW,225,3.4,4.5,55,0.00,,,0.00,WUHU216HW,2013-02-14 19:16:00,
2013-02-14 14:21:00,46.1,30.2,29.96,South,180,1.6,4.9,54,0.00,,,0.00,WUHU216HW,2013-02-14 19:21:00,
2013-02-14 14:26:00,46.3,30.9,29.96,WSW,248,1.1,4.9,55,0.00,,,0.00,WUHU216HW,2013-02-14 19:26:00,
2013-02-14 14:31:00,46.3,30.4,29.96,WSW,248,3.8,3.8,54,0.00,,,0.00,WUHU216HW,2013-02-14 19:31:00,
2013-02-14 14:36:00,46.4,30.6,29.96,West,270,2.0,3.8,54,0.00,,,0.00,WUHU216HW,2013-02-14 19:36:00,
2013-02-14 14:41:00,46.6,31.2,29.96,WSW,248,2.9,3.4,55,0.00,,,0.00,WUHU216HW,2013-02-14 19:41:00,
2013-02-14 14:46:00,46.8,30.5,29.97,WSW,248,2.9,4.0,53,0.00,,,0.00,WUHU216HW,2013-02-14 19:46:00,
2013-02-14 14:51:00,46.8,30.5,29.97,West,270,2.7,4.0,53,0.00,,,0.00,WUHU216HW,2013-02-14 19:51:00,
2013-02-14 14:56:00,47.2,30.8,29.96,WNW,293,2.2,4.0,53,0.00,,,0.00,WUHU216HW,2013-02-14 19:56:00,
2013-02-14 15:01:00,47.2,29.9,29.96,South,180,1.8,4.0,51,0.00,,,0.00,WUHU216HW,2013-02-14 20:01:00,
2013-02-14 15:06:00,47.3,30.5,29.95,WNW,293,3.4,3.4,52,0.00,,,0.00,WUHU216HW,2013-02-14 20:06:00,
2013-02-14 15:11:00,47.3,30.5,29.95,WSW,248,1.3,3.8,52,0.00,,,0.00,WUHU216HW,2013-02-14 20:11:00,
2013-02-14 15:16:00,47.7,30.9,29.95,West,270,1.8,3.8,52,0.00,,,0.00,WUHU216HW,2013-02-14 20:16:00,
2013-02-14 15:21:00,47.9,31.1,29.95,WSW,248,1.8,3.6,52,0.00,,,0.00,WUHU216HW,2013-02-14 20:21:00,
2013-02-14 15:26:00,47.7,30.4,29.95,WSW,248,3.8,3.8,51,0.00,,,0.00,WUHU216HW,2013-02-14 20:26:00,
2013-02-14 15:31:00,47.7,30.0,29.95,WSW,248,1.1,3.8,50,0.00,,,0.00,WUHU216HW,2013-02-14 20:31:00,
2013-02-14 15:36:00,47.7,30.4,29.95,WSW,248,1.8,3.8,51,0.00,,,0.00,WUHU216HW,2013-02-14 20:36:00,
2013-02-14 15:41:00,47.9,30.6,29.95,West,270,2.5,3.8,51,0.00,,,0.00,WUHU216HW,2013-02-14 20:41:00,
2013-02-14 15:46:00,48.1,30.7,29.95,WSW,248,2.7,3.1,51,0.00,,,0.00,WUHU216HW,2013-02-14 20:46:00,
2013-02-14 15:51:00,48.2,30.9,29.94,WSW,248,1.1,3.6,51,0.00,,,0.00,WUHU216HW,2013-02-14 20:51:00,
2013-02-14 15:56:00,48.4,31.1,29.94,West,270,3.1,3.6,51,0.00,,,0.00,WUHU216HW,2013-02-14 20:56:00,
2013-02-14 16:01:00,48.6,31.7,29.94,WSW,248,2.7,3.4,52,0.00,,,0.00,WUHU216HW,2013-02-14 21:01:00,
2013-02-14 16:06:00,48.6,31.2,29.95,West,270,2.2,4.0,51,0.00,,,0.00,WUHU216HW,2013-02-14 21:06:00,
2013-02-14 16:11:00,48.6,30.3,29.94,SW,225,3.6,4.0,49,0.00,,,0.00,WUHU216HW,2013-02-14 21:11:00,
2013-02-14 16:16:00,48.2,30.4,29.95,WSW,248,2.2,3.6,50,0.00,,,0.00,WUHU216HW,2013-02-14 21:16:00,
2013-02-14 16:21:00,48.2,30.4,29.95,WSW,248,1.8,2.9,50,0.00,,,0.00,WUHU216HW,2013-02-14 21:21:00,
2013-02-14 16:26:00,48.1,29.7,29.95,SW,225,1.8,3.6,49,0.00,,,0.00,WUHU216HW,2013-02-14 21:26:00,
2013-02-14 16:31:00,47.9,30.1,29.95,NW,315,1.6,3.6,50,0.00,,,0.00,WUHU216HW,2013-02-14 21:31:00,
2013-02-14 16:36:00,47.9,30.1,29.95,SSE,158,1.1,2.9,50,0.00,,,0.00,WUHU216HW,2013-02-14 21:36:00,
2013-02-14 16:41:00,47.5,30.3,29.95,SW,225,1.8,2.9,51,0.00,,,0.00,WUHU216HW,2013-02-14 21:41:00,
2013-02-14 16:46:00,47.3,30.1,29.95,SW,225,3.8,3.8,51,0.00,,,0.00,WUHU216HW,2013-02-14 21:46:00,
2013-02-14 16:51:00,47.3,30.1,29.95,ESE,113,3.6,3.8,51,0.00,,,0.00,WUHU216HW,2013-02-14 21:51:00,
2013-02-14 16:56:00,47.2,29.9,29.95,East,90,0.9,3.6,51,0.00,,,0.00,WUHU216HW,2013-02-14 21:56:00,
2013-02-14 17:01:00,47.2,29.9,29.95,SSW,203,1.1,3.6,51,0.00,,,0.00,WUHU216HW,2013-02-14 22:01:00,
2013-02-14 17:06:00,47.0,30.3,29.95,NNW,338,0.4,4.0,52,0.00,,,0.00,WUHU216HW,2013-02-14 22:06:00,
2013-02-14 17:11:00,46.4,29.3,29.95,SW,225,1.1,4.0,51,0.00,,,0.00,WUHU216HW,2013-02-14 22:11:00,
2013-02-14 17:16:00,46.3,29.5,29.96,SSE,158,1.1,1.8,52,0.00,,,0.00,WUHU216HW,2013-02-14 22:16:00,
2013-02-14 17:21:00,46.1,29.3,29.95,NE,45,1.3,1.8,52,0.00,,,0.00,WUHU216HW,2013-02-14 22:21:00,
2013-02-14 17:26:00,45.5,29.3,29.96,SSW,203,0.0,1.8,53,0.00,,,0.00,WUHU216HW,2013-02-14 22:26:00,
2013-02-14 17:31:00,45.2,29.0,29.96,South,180,0.4,1.3,53,0.00,,,0.00,WUHU216HW,2013-02-14 22:31:00,
2013-02-14 17:36:00,44.8,28.7,29.96,NW,315,0.2,1.6,53,0.00,,,0.00,WUHU216HW,2013-02-14 22:36:00,
2013-02-14 17:41:00,44.5,28.4,29.96,West,270,0.0,1.6,53,0.00,,,0.00,WUHU216HW,2013-02-14 22:41:00,
2013-02-14 17:46:00,43.6,28.0,29.96,West,270,0.0,0.7,54,0.00,,,0.00,WUHU216HW,2013-02-14 22:46:00,
2013-02-14 17:51:00,43.0,27.5,29.96,NE,45,0.4,0.4,54,0.00,,,0.00,WUHU216HW,2013-02-14 22:51:00,
2013-02-14 17:56:00,42.5,27.4,29.97,NW,315,0.0,0.4,55,0.00,,,0.00,WUHU216HW,2013-02-14 22:56:00,
2013-02-14 18:01:00,42.1,27.0,29.97,WNW,293,0.0,0.0,55,0.00,,,0.00,WUHU216HW,2013-02-14 23:01:00,
2013-02-14 18:06:00,41.8,27.2,29.96,North,0,0.0,0.7,56,0.00,,,0.00,WUHU216HW,2013-02-14 23:06:00,
2013-02-14 18:11:00,41.4,26.8,29.97,South,180,0.0,0.7,56,0.00,,,0.00,WUHU216HW,2013-02-14 23:11:00,
2013-02-14 18:16:00,41.2,26.7,29.97,East,90,0.0,0.9,56,0.00,,,0.00,WUHU216HW,2013-02-14 23:16:00,
2013-02-14 18:21:00,41.0,26.5,29.97,NNW,338,0.0,0.9,56,0.00,,,0.00,WUHU216HW,2013-02-14 23:21:00,
2013-02-14 18:26:00,41.0,26.9,29.97,WNW,293,0.0,0.7,57,0.00,,,0.00,WUHU216HW,2013-02-14 23:26:00,
2013-02-14 18:31:00,41.2,27.1,29.97,NW,315,0.0,0.0,57,0.00,,,0.00,WUHU216HW,2013-02-14 23:31:00,
2013-02-14 18:36:00,41.2,27.1,29.98,NW,315,0.0,0.4,57,0.00,,,0.00,WUHU216HW,2013-02-14 23:36:00,
2013-02-14 18:41:00,41.0,26.9,29.98,NW,315,0.0,0.4,57,0.00,,,0.00,WUHU216HW,2013-02-14 23:41:00,
2013-02-14 18:46:00,40.9,26.7,29.98,WNW,293,0.4,0.4,57,0.00,,,0.00,WUHU216HW,2013-02-14 23:46:00,
2013-02-14 18:51:00,40.3,26.6,29.98,West,270,0.4,0.4,58,0.00,,,0.00,WUHU216HW,2013-02-14 23:51:00,
2013-02-14 18:56:00,39.8,26.6,29.98,West,270,0.2,0.4,59,0.00,,,0.00,WUHU216HW,2013-02-14 23:56:00,
2013-02-14 19:01:00,39.1,26.3,29.99,West,270,0.9,0.9,60,0.00,,,0.00,WUHU216HW,2013-02-15 00:01:00,
2013-02-14 19:06:00,38.5,26.2,29.99,NW,315,0.9,0.9,61,0.00,,,0.00,WUHU216HW,2013-02-15 00:06:00,
2013-02-14 19:11:00,38.2,26.3,29.99,WNW,293,0.9,1.1,62,0.00,,,0.00,WUHU216HW,2013-02-15 00:11:00,
2013-02-14 19:16:00,38.0,26.5,29.99,West,270,0.2,1.1,63,0.00,,,0.00,WUHU216HW,2013-02-15 00:16:00,
2013-02-14 19:21:00,37.8,26.3,29.99,West,270,0.7,0.9,63,0.00,,,0.00,WUHU216HW,2013-02-15 00:21:00,
2013-02-14 19:26:00,37.3,25.5,30.00,West,270,0.0,0.9,62,0.00,,,0.00,WUHU216HW,2013-02-15 00:26:00,
2013-02-14 19:31:00,36.7,24.9,29.99,WNW,293,0.0,0.7,62,0.00,,,0.00,WUHU216HW,2013-02-15 00:31:00,
2013-02-14 19:36:00,36.5,25.1,29.99,NW,315,0.0,0.0,63,0.00,,,0.00,WUHU216HW,2013-02-15 00:36:00,
2013-02-14 19:41:00,36.5,25.1,29.99,NNW,338,0.4,0.4,63,0.00,,,0.00,WUHU216HW,2013-02-15 00:41:00,
2013-02-14 19:46:00,36.9,25.5,29.99,NNW,338,0.0,0.4,63,0.00,,,0.00,WUHU216HW,2013-02-15 00:46:00,
2013-02-14 19:51:00,37.3,25.5,29.99,NW,315,0.0,0.4,62,0.00,,,0.00,WUHU216HW,2013-02-15 00:51:00,
2013-02-14 19:56:00,37.6,25.7,29.99,NNW,338,0.0,0.4,62,0.00,,,0.00,WUHU216HW,2013-02-15 00:56:00,
2013-02-14 20:01:00,38.0,26.5,29.99,NW,315,0.0,0.4,63,0.00,,,0.00,WUHU216HW,2013-02-15 01:01:00,
2013-02-14 20:06:00,38.2,26.3,29.99,WNW,293,0.4,0.4,62,0.00,,,0.00,WUHU216HW,2013-02-15 01:06:00,
2013-02-14 20:11:00,38.3,26.4,29.99,WNW,293,0.4,0.4,62,0.00,,,0.00,WUHU216HW,2013-02-15 01:11:00,
2013-02-14 20:16:00,38.5,26.2,29.98,WNW,293,0.0,0.4,61,0.00,,,0.00,WUHU216HW,2013-02-15 01:16:00,
2013-02-14 20:21:00,38.5,26.2,29.99,WNW,293,0.0,0.4,61,0.00,,,0.00,WUHU216HW,2013-02-15 01:21:00,
2013-02-14 20:26:00,38.3,26.0,29.99,WNW,293,0.0,0.4,61,0.00,,,0.00,WUHU216HW,2013-02-15 01:26:00,
2013-02-14 20:31:00,38.2,25.8,29.99,West,270,0.0,0.4,61,0.00,,,0.00,WUHU216HW,2013-02-15 01:31:00,
2013-02-14 20:36:00,38.2,26.3,29.99,West,270,0.4,0.4,62,0.00,,,0.00,WUHU216HW,2013-02-15 01:36:00,
2013-02-14 20:41:00,38.3,26.0,29.99,West,270,0.0,0.9,61,0.00,,,0.00,WUHU216HW,2013-02-15 01:41:00,
2013-02-14 20:46:00,38.3,26.0,30.00,West,270,0.4,0.9,61,0.00,,,0.00,WUHU216HW,2013-02-15 01:46:00,
2013-02-14 20:51:00,38.2,25.8,29.99,West,270,0.0,0.7,61,0.00,,,0.00,WUHU216HW,2013-02-15 01:51:00,
2013-02-14 20:56:00,37.4,24.8,30.00,West,270,0.0,0.0,60,0.00,,,0.00,WUHU216HW,2013-02-15 01:56:00,
2013-02-14 21:01:00,36.9,24.4,30.00,West,270,0.0,0.0,60,0.00,,,0.00,WUHU216HW,2013-02-15 02:01:00,
2013-02-14 21:06:00,36.0,24.3,30.00,SE,135,0.7,0.9,62,0.00,,,0.00,WUHU216HW,2013-02-15 02:06:00,
2013-02-14 21:11:00,35.6,23.9,30.00,SE,135,0.0,0.9,62,0.00,,,0.00,WUHU216HW,2013-02-15 02:11:00,
2013-02-14 21:16:00,35.1,23.8,30.00,South,180,0.0,0.9,63,0.00,,,0.00,WUHU216HW,2013-02-15 02:16:00,
2013-02-14 21:21:00,34.6,24.3,29.99,WSW,248,0.4,0.4,66,0.00,,,0.00,WUHU216HW,2013-02-15 02:21:00,
2013-02-14 21:26:00,34.2,24.3,29.99,West,270,0.4,0.4,67,0.00,,,0.00,WUHU216HW,2013-02-15 02:26:00,
2013-02-14 21:31:00,33.8,23.9,29.99,West,270,0.7,0.9,67,0.00,,,0.00,WUHU216HW,2013-02-15 02:31:00,
2013-02-14 21:36:00,33.5,23.9,30.00,West,270,0.4,0.9,68,0.00,,,0.00,WUHU216HW,2013-02-15 02:36:00,
2013-02-14 21:41:00,33.3,23.9,30.00,West,270,0.0,0.7,68,0.00,,,0.00,WUHU216HW,2013-02-15 02:41:00,
2013-02-14 21:46:00,32.9,23.5,30.00,West,270,0.0,0.4,68,0.00,,,0.00,WUHU216HW,2013-02-15 02:46:00,
2013-02-14 21:51:00,32.6,23.1,29.99,West,270,0.0,0.0,68,0.00,,,0.00,WUHU216HW,2013-02-15 02:51:00,
2013-02-14 21:56:00,32.4,23.4,29.99,SE,135,1.1,1.1,69,0.00,,,0.00,WUHU216HW,2013-02-15 02:56:00,
2013-02-14 22:01:00,32.0,23.0,30.00,SE,135,0.4,1.1,69,0.00,,,0.00,WUHU216HW,2013-02-15 03:01:00,
2013-02-14 22:06:00,31.9,22.9,30.00,SW,225,0.0,1.1,69,0.00,,,0.00,WUHU216HW,2013-02-15 03:06:00,
2013-02-14 22:11:00,31.3,22.7,29.99,WSW,248,0.4,0.7,70,0.00,,,0.00,WUHU216HW,2013-02-15 03:11:00,
2013-02-14 22:17:00,31.1,22.9,30.00,WSW,248,0.7,0.9,71,0.00,,,0.00,WUHU216HW,2013-02-15 03:17:00,
2013-02-14 22:22:00,31.0,23.0,30.00,WSW,248,0.4,0.9,72,0.00,,,0.00,WUHU216HW,2013-02-15 03:22:00,
2013-02-14 22:27:00,31.0,23.3,29.99,WSW,248,0.0,0.9,73,0.00,,,0.00,WUHU216HW,2013-02-15 03:27:00,
2013-02-14 22:32:00,30.8,23.1,29.99,WSW,248,0.0,0.7,73,0.00,,,0.00,WUHU216HW,2013-02-15 03:32:00,
2013-02-14 22:37:00,30.6,23.0,30.00,WNW,293,0.0,0.0,73,0.00,,,0.00,WUHU216HW,2013-02-15 03:37:00,
2013-02-14 22:42:00,30.1,22.4,30.00,WNW,293,0.0,0.0,73,0.00,,,0.00,WUHU216HW,2013-02-15 03:42:00,
2013-02-14 22:47:00,29.9,22.2,30.00,SW,225,0.0,0.0,73,0.00,,,0.00,WUHU216HW,2013-02-15 03:47:00,
2013-02-14 22:52:00,30.1,22.4,30.00,WSW,248,0.0,0.0,73,0.00,,,0.00,WUHU216HW,2013-02-15 03:52:00,
2013-02-14 22:57:00,30.1,23.0,30.00,WSW,248,0.0,0.0,75,0.00,,,0.00,WUHU216HW,2013-02-15 03:57:00,
2013-02-14 23:02:00,29.9,22.9,30.00,NNE,23,0.4,0.4,75,0.00,,,0.00,WUHU216HW,2013-02-15 04:02:00,
2013-02-14 23:07:00,29.9,22.6,30.00,North,0,0.0,0.4,74,0.00,,,0.00,WUHU216HW,2013-02-15 04:07:00,
2013-02-14 23:12:00,30.2,22.9,30.00,North,0,0.0,0.4,74,0.00,,,0.00,WUHU216HW,2013-02-15 04:12:00,
2013-02-14 23:17:00,30.6,23.2,30.00,NNW,338,0.0,0.4,74,0.00,,,0.00,WUHU216HW,2013-02-15 04:17:00,
2013-02-14 23:22:00,30.6,23.2,30.00,NNW,338,0.0,0.4,74,0.00,,,0.00,WUHU216HW,2013-02-15 04:22:00,
2013-02-14 23:27:00,30.4,23.0,30.00,NNW,338,0.0,0.0,74,0.00,,,0.00,WUHU216HW,2013-02-15 04:27:00,
2013-02-14 23:32:00,30.1,22.8,30.00,NNW,338,0.0,0.0,74,0.00,,,0.00,WUHU216HW,2013-02-15 04:32:00,
2013-02-14 23:37:00,30.1,23.0,30.00,NNW,338,0.0,0.0,75,0.00,,,0.00,WUHU216HW,2013-02-15 04:37:00,
2013-02-14 23:42:00,30.4,23.4,30.00,NNW,338,0.0,0.0,75,0.00,,,0.00,WUHU216HW,2013-02-15 04:42:00,
2013-02-14 23:47:00,30.8,23.4,30.00,West,270,0.0,0.4,74,0.00,,,0.00,WUHU216HW,2013-02-15 04:47:00,
2013-02-14 23:52:00,30.8,23.4,30.00,West,270,0.0,1.1,74,0.00,,,0.00,WUHU216HW,2013-02-15 04:52:00,
2013-02-14 23:57:00,30.6,23.2,29.99,WSW,248,0.0,1.1,74,0.00,,,0.00,WUHU216HW,2013-02-15 04:57:00,